sensor_id;sensor_type;location;lat;lon;timestamp;pressure;altitude;pressure_sealevel;temperature;humidity
17855;BME280;9053;53.358;6.382;2022-11-20T00:00:10;101380.88;;;3.22;99.36
17855;BME280;9053;53.358;6.382;2022-11-20T00:02:40;101385.28;;;3.23;99.31
17855;BME280;9053;53.358;6.382;2022-11-20T00:05:10;101382.78;;;3.24;99.43
17855;BME280;9053;53.358;6.382;2022-11-20T00:07:40;101378.41;;;3.23;99.50
17855;BME280;9053;53.358;6.382;2022-11-20T00:10:09;101378.41;;;3.23;99.35
17855;BME280;9053;53.358;6.382;2022-11-20T00:12:42;101380.88;;;3.22;99.43
17855;BME280;9053;53.358;6.382;2022-11-20T00:15:11;101380.88;;;3.22;99.38
17855;BME280;9053;53.358;6.382;2022-11-20T00:17:41;101381.69;;;3.21;99.35
17855;BME280;9053;53.358;6.382;2022-11-20T00:20:12;101377.25;;;3.20;99.58
17855;BME280;9053;53.358;6.382;2022-11-20T00:22:41;101376.34;;;3.19;99.59
17855;BME280;9053;53.358;6.382;2022-11-20T00:25:11;101376.34;;;3.19;99.50
17855;BME280;9053;53.358;6.382;2022-11-20T00:27:43;101374.66;;;3.20;99.49
17855;BME280;9053;53.358;6.382;2022-11-20T00:32:43;101368.34;;;3.16;99.65
17855;BME280;9053;53.358;6.382;2022-11-20T00:35:13;101365.75;;;3.16;99.60
17855;BME280;9053;53.358;6.382;2022-11-20T00:37:42;101370.06;;;3.16;99.64
17855;BME280;9053;53.358;6.382;2022-11-20T00:40:12;101364.63;;;3.13;99.50
17855;BME280;9053;53.358;6.382;2022-11-20T00:42:45;101362.13;;;3.14;99.55
17855;BME280;9053;53.358;6.382;2022-11-20T00:45:15;101358.50;;;3.12;99.60
17855;BME280;9053;53.358;6.382;2022-11-20T00:47:44;101361.91;;;3.11;99.64
17855;BME280;9053;53.358;6.382;2022-11-20T00:50:14;101356.59;;;3.10;99.70
17855;BME280;9053;53.358;6.382;2022-11-20T00:52:44;101365.41;;;3.12;99.70
17855;BME280;9053;53.358;6.382;2022-11-20T00:55:14;101360.13;;;3.10;99.58
17855;BME280;9053;53.358;6.382;2022-11-20T00:57:46;101355.59;;;3.08;99.61
17855;BME280;9053;53.358;6.382;2022-11-20T01:00:16;101353.78;;;3.07;99.44
17855;BME280;9053;53.358;6.382;2022-11-20T01:02:46;101360.81;;;3.08;99.68
17855;BME280;9053;53.358;6.382;2022-11-20T01:05:16;101352.88;;;3.06;99.60
17855;BME280;9053;53.358;6.382;2022-11-20T01:07:45;101352.00;;;3.06;99.46
17855;BME280;9053;53.358;6.382;2022-11-20T01:10:15;101341.38;;;3.02;99.71
17855;BME280;9053;53.358;6.382;2022-11-20T01:12:48;101347.47;;;3.03;99.41
17855;BME280;9053;53.358;6.382;2022-11-20T01:15:37;101350.97;;;3.03;99.59
17855;BME280;9053;53.358;6.382;2022-11-20T01:18:07;101344.19;;;3.06;99.68
17855;BME280;9053;53.358;6.382;2022-11-20T01:20:37;101348.59;;;3.07;99.52
17855;BME280;9053;53.358;6.382;2022-11-20T01:23:07;101340.78;;;3.07;99.62
17855;BME280;9053;53.358;6.382;2022-11-20T01:25:37;101347.00;;;3.09;99.68
17855;BME280;9053;53.358;6.382;2022-11-20T01:28:09;101334.13;;;3.10;99.63
17855;BME280;9053;53.358;6.382;2022-11-20T01:30:39;101342.03;;;3.12;99.47
17855;BME280;9053;53.358;6.382;2022-11-20T01:33:08;101337.72;;;3.12;99.57
17855;BME280;9053;53.358;6.382;2022-11-20T01:35:38;101331.06;;;3.16;99.62
17855;BME280;9053;53.358;6.382;2022-11-20T01:38:08;101324.16;;;3.16;99.68
17855;BME280;9053;53.358;6.382;2022-11-20T01:40:38;101325.19;;;3.18;99.56
17855;BME280;9053;53.358;6.382;2022-11-20T01:43:16;101327.09;;;3.21;99.59
17855;BME280;9053;53.358;6.382;2022-11-20T01:45:59;101331.47;;;3.22;99.57
17855;BME280;9053;53.358;6.382;2022-11-20T01:48:33;101330.72;;;3.23;99.49
17855;BME280;9053;53.358;6.382;2022-11-20T01:51:10;101321.28;;;3.25;99.72
17855;BME280;9053;53.358;6.382;2022-11-20T01:53:42;101320.53;;;3.26;99.68
17855;BME280;9053;53.358;6.382;2022-11-20T01:56:13;101325.03;;;3.29;99.71
17855;BME280;9053;53.358;6.382;2022-11-20T01:58:48;101321.63;;;3.30;99.71
17855;BME280;9053;53.358;6.382;2022-11-20T02:01:20;101321.53;;;3.28;99.60
17855;BME280;9053;53.358;6.382;2022-11-20T02:03:51;101313.75;;;3.28;99.47
17855;BME280;9053;53.358;6.382;2022-11-20T02:06:24;101313.06;;;3.31;99.53
17855;BME280;9053;53.358;6.382;2022-11-20T02:08:55;101314.84;;;3.32;99.55
17855;BME280;9053;53.358;6.382;2022-11-20T02:11:25;101310.78;;;3.35;99.46
17855;BME280;9053;53.358;6.382;2022-11-20T02:13:57;101305.66;;;3.37;99.65
17855;BME280;9053;53.358;6.382;2022-11-20T02:16:28;101300.78;;;3.41;99.48
17855;BME280;9053;53.358;6.382;2022-11-20T02:19:00;101300.78;;;3.41;99.62
17855;BME280;9053;53.358;6.382;2022-11-20T02:21:35;101298.31;;;3.43;99.66
17855;BME280;9053;53.358;6.382;2022-11-20T02:24:14;101301.00;;;3.44;99.47
17855;BME280;9053;53.358;6.382;2022-11-20T02:26:48;101286.28;;;3.45;99.44
17855;BME280;9053;53.358;6.382;2022-11-20T02:29:24;101289.00;;;3.46;99.42
17855;BME280;9053;53.358;6.382;2022-11-20T02:31:56;101292.63;;;3.49;99.64
17855;BME280;9053;53.358;6.382;2022-11-20T02:34:28;101284.13;;;3.51;99.53
17855;BME280;9053;53.358;6.382;2022-11-20T02:36:59;101290.34;;;3.53;99.54
17855;BME280;9053;53.358;6.382;2022-11-20T02:39:31;101283.44;;;3.54;99.44
17855;BME280;9053;53.358;6.382;2022-11-20T02:42:01;101272.94;;;3.52;99.62
17855;BME280;9053;53.358;6.382;2022-11-20T02:44:31;101264.81;;;3.47;99.33
17855;BME280;9053;53.358;6.382;2022-11-20T02:47:01;101257.69;;;3.45;99.30
17855;BME280;9053;53.358;6.382;2022-11-20T02:49:31;101252.19;;;3.40;99.41
17855;BME280;9053;53.358;6.382;2022-11-20T02:52:01;101254.47;;;3.36;99.30
17855;BME280;9053;53.358;6.382;2022-11-20T02:54:35;101255.25;;;3.35;99.42
17855;BME280;9053;53.358;6.382;2022-11-20T02:57:04;101254.34;;;3.34;99.30
17855;BME280;9053;53.358;6.382;2022-11-20T02:59:34;101262.28;;;3.36;99.38
17855;BME280;9053;53.358;6.382;2022-11-20T03:02:04;101261.59;;;3.38;99.19
17855;BME280;9053;53.358;6.382;2022-11-20T03:04:34;101250.28;;;3.38;99.26
17855;BME280;9053;53.358;6.382;2022-11-20T03:07:04;101256.97;;;3.34;99.18
17855;BME280;9053;53.358;6.382;2022-11-20T03:09:37;101261.06;;;3.31;99.12
17855;BME280;9053;53.358;6.382;2022-11-20T03:12:07;101256.31;;;3.25;99.04
17855;BME280;9053;53.358;6.382;2022-11-20T03:14:36;101253.41;;;3.20;99.06
17855;BME280;9053;53.358;6.382;2022-11-20T03:17:06;101257.59;;;3.18;99.06
17855;BME280;9053;53.358;6.382;2022-11-20T03:19:36;101238.28;;;3.15;98.85
17855;BME280;9053;53.358;6.382;2022-11-20T03:22:06;101239.88;;;3.13;98.92
17855;BME280;9053;53.358;6.382;2022-11-20T03:24:38;101231.97;;;3.11;98.83
17855;BME280;9053;53.358;6.382;2022-11-20T03:27:08;101233.56;;;3.09;98.95
17855;BME280;9053;53.358;6.382;2022-11-20T03:29:38;101240.47;;;3.09;98.74
17855;BME280;9053;53.358;6.382;2022-11-20T03:32:07;101240.56;;;3.10;98.74
17855;BME280;9053;53.358;6.382;2022-11-20T03:34:37;101228.56;;;3.12;98.89
17855;BME280;9053;53.358;6.382;2022-11-20T03:37:07;101227.88;;;3.15;98.62
17855;BME280;9053;53.358;6.382;2022-11-20T03:39:39;101224.72;;;3.19;98.82
17855;BME280;9053;53.358;6.382;2022-11-20T03:42:09;101221.53;;;3.23;98.71
17855;BME280;9053;53.358;6.382;2022-11-20T03:45:00;101224.47;;;3.28;98.94
17855;BME280;9053;53.358;6.382;2022-11-20T03:47:30;101216.06;;;3.32;98.72
17855;BME280;9053;53.358;6.382;2022-11-20T03:49:59;101218.84;;;3.35;98.73
17855;BME280;9053;53.358;6.382;2022-11-20T03:52:29;101224.38;;;3.39;98.66
17855;BME280;9053;53.358;6.382;2022-11-20T03:55:02;101214.09;;;3.41;98.70
17855;BME280;9053;53.358;6.382;2022-11-20T03:57:32;101224.59;;;3.42;98.74
17855;BME280;9053;53.358;6.382;2022-11-20T04:00:03;101219.38;;;3.42;98.79
17855;BME280;9053;53.358;6.382;2022-11-20T04:02:33;101208.97;;;3.42;98.68
17855;BME280;9053;53.358;6.382;2022-11-20T04:05:03;101210.69;;;3.42;98.73
17855;BME280;9053;53.358;6.382;2022-11-20T04:07:34;101207.19;;;3.41;98.70
17855;BME280;9053;53.358;6.382;2022-11-20T04:10:07;101207.19;;;3.41;98.63
17855;BME280;9053;53.358;6.382;2022-11-20T04:12:37;101203.00;;;3.43;98.75
17855;BME280;9053;53.358;6.382;2022-11-20T04:15:07;101194.41;;;3.44;98.57
17855;BME280;9053;53.358;6.382;2022-11-20T04:17:38;101198.81;;;3.45;98.58
17855;BME280;9053;53.358;6.382;2022-11-20T04:20:09;101193.69;;;3.47;98.65
17855;BME280;9053;53.358;6.382;2022-11-20T04:22:39;101186.78;;;3.47;98.44
17855;BME280;9053;53.358;6.382;2022-11-20T04:25:11;101184.50;;;3.52;98.46
17855;BME280;9053;53.358;6.382;2022-11-20T04:27:41;101182.91;;;3.54;98.64
17855;BME280;9053;53.358;6.382;2022-11-20T04:30:12;101188.22;;;3.56;98.51
17855;BME280;9053;53.358;6.382;2022-11-20T04:32:42;101178.81;;;3.58;98.38
17855;BME280;9053;53.358;6.382;2022-11-20T04:35:11;101173.72;;;3.59;98.32
17855;BME280;9053;53.358;6.382;2022-11-20T04:37:41;101167.75;;;3.60;98.51
17855;BME280;9053;53.358;6.382;2022-11-20T04:40:14;101167.81;;;3.62;98.41
17855;BME280;9053;53.358;6.382;2022-11-20T04:42:44;101162.75;;;3.63;98.31
17855;BME280;9053;53.358;6.382;2022-11-20T04:45:14;101168.03;;;3.65;98.36
17855;BME280;9053;53.358;6.382;2022-11-20T05:09:48;101166.63;;;3.70;98.12
17855;BME280;9053;53.358;6.382;2022-11-20T05:12:18;101165.41;;;3.65;98.18
17855;BME280;9053;53.358;6.382;2022-11-20T05:14:48;101163.44;;;3.61;97.92
17855;BME280;9053;53.358;6.382;2022-11-20T05:17:18;101161.53;;;3.58;98.04
17855;BME280;9053;53.358;6.382;2022-11-20T05:19:50;101157.03;;;3.56;98.08
17855;BME280;9053;53.358;6.382;2022-11-20T05:22:20;101157.03;;;3.56;98.05
17855;BME280;9053;53.358;6.382;2022-11-20T05:24:53;101157.72;;;3.53;97.94
17855;BME280;9053;53.358;6.382;2022-11-20T05:27:23;101149.00;;;3.53;97.83
17855;BME280;9053;53.358;6.382;2022-11-20T05:29:53;101149.81;;;3.52;97.97
17855;BME280;9053;53.358;6.382;2022-11-20T05:32:22;101148.09;;;3.52;98.13
17855;BME280;9053;53.358;6.382;2022-11-20T05:34:53;101146.31;;;3.51;98.01
17855;BME280;9053;53.358;6.382;2022-11-20T05:37:23;101142.69;;;3.49;97.96
17855;BME280;9053;53.358;6.382;2022-11-20T05:39:55;101138.31;;;3.48;97.98
17855;BME280;9053;53.358;6.382;2022-11-20T05:42:25;101137.31;;;3.46;98.06
17855;BME280;9053;53.358;6.382;2022-11-20T05:45:04;101132.00;;;3.44;97.87
17855;BME280;9053;53.358;6.382;2022-11-20T05:47:34;101132.81;;;3.43;97.87
17855;BME280;9053;53.358;6.382;2022-11-20T05:50:05;101130.97;;;3.42;97.91
17855;BME280;9053;53.358;6.382;2022-11-20T05:52:35;101122.41;;;3.43;97.98
17855;BME280;9053;53.358;6.382;2022-11-20T05:55:08;101120.81;;;3.45;97.84
17855;BME280;9053;53.358;6.382;2022-11-20T05:57:38;101123.50;;;3.47;97.97
17855;BME280;9053;53.358;6.382;2022-11-20T06:00:09;101128.81;;;3.49;97.86
17855;BME280;9053;53.358;6.382;2022-11-20T06:02:39;101131.41;;;3.49;97.93
17855;BME280;9053;53.358;6.382;2022-11-20T06:05:09;101125.41;;;3.50;98.04
17855;BME280;9053;53.358;6.382;2022-11-20T06:07:39;101122.91;;;3.51;98.07
17855;BME280;9053;53.358;6.382;2022-11-20T06:10:12;101122.22;;;3.54;97.93
17855;BME280;9053;53.358;6.382;2022-11-20T06:12:42;101111.88;;;3.55;98.17
17855;BME280;9053;53.358;6.382;2022-11-20T06:15:12;101116.41;;;3.58;98.17
17855;BME280;9053;53.358;6.382;2022-11-20T06:17:41;101111.41;;;3.61;98.05
17855;BME280;9053;53.358;6.382;2022-11-20T06:20:11;101115.91;;;3.63;98.14
17855;BME280;9053;53.358;6.382;2022-11-20T06:22:41;101119.59;;;3.67;98.23
17855;BME280;9053;53.358;6.382;2022-11-20T06:25:14;101113.63;;;3.68;98.03
17855;BME280;9053;53.358;6.382;2022-11-20T06:27:52;101116.31;;;3.69;98.18
17855;BME280;9053;53.358;6.382;2022-11-20T06:33:02;101113.81;;;3.71;98.25
17855;BME280;9053;53.358;6.382;2022-11-20T06:35:32;101115.63;;;3.72;98.16
17855;BME280;9053;53.358;6.382;2022-11-20T06:38:01;101123.41;;;3.72;98.16
17855;BME280;9053;53.358;6.382;2022-11-20T06:40:34;101125.22;;;3.73;98.35
17855;BME280;9053;53.358;6.382;2022-11-20T06:43:04;101120.81;;;3.72;98.25
17855;BME280;9053;53.358;6.382;2022-11-20T06:45:33;101119.22;;;3.74;98.32
17855;BME280;9053;53.358;6.382;2022-11-20T06:48:03;101118.41;;;3.75;98.25
17855;BME280;9053;53.358;6.382;2022-11-20T06:50:33;101121.00;;;3.75;98.19
17855;BME280;9053;53.358;6.382;2022-11-20T06:53:04;101120.31;;;3.78;98.31
17855;BME280;9053;53.358;6.382;2022-11-20T06:55:37;101120.41;;;3.79;98.26
17855;BME280;9053;53.358;6.382;2022-11-20T06:58:11;101121.44;;;3.81;98.30
17855;BME280;9053;53.358;6.382;2022-11-20T07:00:41;101119.72;;;3.82;98.33
17855;BME280;9053;53.358;6.382;2022-11-20T07:03:11;101129.41;;;3.84;98.44
17855;BME280;9053;53.358;6.382;2022-11-20T07:05:41;101126.00;;;3.85;98.46
17855;BME280;9053;53.358;6.382;2022-11-20T07:08:12;101128.72;;;3.87;98.41
17855;BME280;9053;53.358;6.382;2022-11-20T07:10:45;101124.41;;;3.87;98.44
17855;BME280;9053;53.358;6.382;2022-11-20T07:13:15;101119.41;;;3.90;98.38
17855;BME280;9053;53.358;6.382;2022-11-20T07:15:44;101117.72;;;3.91;98.50
17855;BME280;9053;53.358;6.382;2022-11-20T07:18:14;101131.63;;;3.92;98.36
17855;BME280;9053;53.358;6.382;2022-11-20T07:20:44;101135.94;;;3.91;98.35
17855;BME280;9053;53.358;6.382;2022-11-20T07:23:14;101130.63;;;3.89;98.38
17855;BME280;9053;53.358;6.382;2022-11-20T07:25:47;101133.13;;;3.88;98.47
17855;BME280;9053;53.358;6.382;2022-11-20T07:28:16;101139.03;;;3.85;98.20
17855;BME280;9053;53.358;6.382;2022-11-20T07:30:49;101141.44;;;3.82;98.37
17855;BME280;9053;53.358;6.382;2022-11-20T07:33:20;101138.63;;;3.79;98.33
17855;BME280;9053;53.358;6.382;2022-11-20T07:35:49;101139.22;;;3.75;98.25
17855;BME280;9053;53.358;6.382;2022-11-20T07:38:19;101137.53;;;3.76;98.24
17855;BME280;9053;53.358;6.382;2022-11-20T07:40:56;101141.13;;;3.78;98.31
17855;BME280;9053;53.358;6.382;2022-11-20T07:43:28;101135.03;;;3.77;98.23
17855;BME280;9053;53.358;6.382;2022-11-20T07:46:04;101124.63;;;3.77;98.22
17855;BME280;9053;53.358;6.382;2022-11-20T07:48:34;101122.91;;;3.78;98.20
17855;BME280;9053;53.358;6.382;2022-11-20T07:51:03;101122.13;;;3.79;98.28
17855;BME280;9053;53.358;6.382;2022-11-20T07:53:33;101122.31;;;3.82;98.18
17855;BME280;9053;53.358;6.382;2022-11-20T07:56:06;101125.22;;;3.86;98.24
17855;BME280;9053;53.358;6.382;2022-11-20T07:58:37;101113.13;;;3.87;98.25
17855;BME280;9053;53.358;6.382;2022-11-20T08:01:07;101116.78;;;3.90;98.45
17855;BME280;9053;53.358;6.382;2022-11-20T08:03:37;101116.00;;;3.92;98.41
17855;BME280;9053;53.358;6.382;2022-11-20T08:06:07;101114.31;;;3.92;98.55
17855;BME280;9053;53.358;6.382;2022-11-20T08:08:37;101113.59;;;3.95;98.60
17855;BME280;9053;53.358;6.382;2022-11-20T08:11:11;101115.44;;;3.96;98.60
17855;BME280;9053;53.358;6.382;2022-11-20T08:13:53;101114.50;;;3.95;98.70
17855;BME280;9053;53.358;6.382;2022-11-20T08:16:35;101118.03;;;3.96;98.67
17855;BME280;9053;53.358;6.382;2022-11-20T08:19:05;101116.41;;;3.98;98.75
17855;BME280;9053;53.358;6.382;2022-11-20T08:21:35;101114.03;;;4.01;98.85
17855;BME280;9053;53.358;6.382;2022-11-20T08:24:06;101121.91;;;4.02;98.95
17855;BME280;9053;53.358;6.382;2022-11-20T08:26:39;101116.09;;;4.06;98.89
17855;BME280;9053;53.358;6.382;2022-11-20T08:29:09;101128.31;;;4.07;99.04
17855;BME280;9053;53.358;6.382;2022-11-20T08:31:39;101132.72;;;4.08;99.03
17855;BME280;9053;53.358;6.382;2022-11-20T08:34:08;101113.69;;;4.09;99.04
17855;BME280;9053;53.358;6.382;2022-11-20T08:36:44;101117.31;;;4.11;99.34
17855;BME280;9053;53.358;6.382;2022-11-20T08:39:14;101121.81;;;4.14;99.32
17855;BME280;9053;53.358;6.382;2022-11-20T08:41:47;101123.59;;;4.15;99.33
17855;BME280;9053;53.358;6.382;2022-11-20T08:44:17;101121.09;;;4.17;99.42
17855;BME280;9053;53.358;6.382;2022-11-20T08:46:46;101121.09;;;4.17;99.45
17855;BME280;9053;53.358;6.382;2022-11-20T08:49:16;101117.69;;;4.18;99.37
17855;BME280;9053;53.358;6.382;2022-11-20T08:51:46;101121.28;;;4.20;99.56
17855;BME280;9053;53.358;6.382;2022-11-20T08:54:19;101116.97;;;4.20;99.59
17855;BME280;9053;53.358;6.382;2022-11-20T08:56:51;101116.19;;;4.21;99.65
17855;BME280;9053;53.358;6.382;2022-11-20T08:59:21;101117.97;;;4.22;99.74
17855;BME280;9053;53.358;6.382;2022-11-20T09:02:11;101111.94;;;4.23;99.85
17855;BME280;9053;53.358;6.382;2022-11-20T09:04:42;101112.94;;;4.25;99.72
17855;BME280;9053;53.358;6.382;2022-11-20T09:07:11;101112.25;;;4.28;99.75
17855;BME280;9053;53.358;6.382;2022-11-20T09:09:41;101101.13;;;4.30;99.90
17855;BME280;9053;53.358;6.382;2022-11-20T09:12:14;101109.03;;;4.32;99.94
17855;BME280;9053;53.358;6.382;2022-11-20T09:14:44;101109.16;;;4.33;99.97
17855;BME280;9053;53.358;6.382;2022-11-20T09:17:20;101112.72;;;4.36;99.98
17855;BME280;9053;53.358;6.382;2022-11-20T09:19:50;101114.56;;;4.37;99.89
17855;BME280;9053;53.358;6.382;2022-11-20T09:22:19;101112.03;;;4.38;100.00
17855;BME280;9053;53.358;6.382;2022-11-20T09:24:49;101112.13;;;4.40;100.00
17855;BME280;9053;53.358;6.382;2022-11-20T09:27:22;101102.72;;;4.42;100.00
17855;BME280;9053;53.358;6.382;2022-11-20T09:29:51;101098.41;;;4.42;99.93
17855;BME280;9053;53.358;6.382;2022-11-20T09:32:21;101094.72;;;4.39;100.00
17855;BME280;9053;53.358;6.382;2022-11-20T09:34:51;101100.13;;;4.42;100.00
17855;BME280;9053;53.358;6.382;2022-11-20T09:37:21;101089.69;;;4.42;100.00
17855;BME280;9053;53.358;6.382;2022-11-20T09:39:50;101099.47;;;4.46;100.00
17855;BME280;9053;53.358;6.382;2022-11-20T09:42:31;101084.78;;;4.46;100.00
17855;BME280;9053;53.358;6.382;2022-11-20T09:45:14;101090.16;;;4.49;100.00
17855;BME280;9053;53.358;6.382;2022-11-20T09:47:57;101086.69;;;4.49;100.00
17855;BME280;9053;53.358;6.382;2022-11-20T09:50:35;101090.06;;;4.48;99.96
17855;BME280;9053;53.358;6.382;2022-11-20T09:53:12;101090.25;;;4.51;99.89
17855;BME280;9053;53.358;6.382;2022-11-20T09:55:43;101081.72;;;4.53;99.87
17855;BME280;9053;53.358;6.382;2022-11-20T09:58:22;101083.72;;;4.58;99.99
17855;BME280;9053;53.358;6.382;2022-11-20T10:01:00;101076.19;;;4.62;99.87
17855;BME280;9053;53.358;6.382;2022-11-20T10:03:39;101072.06;;;4.66;99.93
17855;BME280;9053;53.358;6.382;2022-11-20T10:06:15;101060.94;;;4.68;99.83
17855;BME280;9053;53.358;6.382;2022-11-20T10:08:51;101059.31;;;4.70;99.82
17855;BME280;9053;53.358;6.382;2022-11-20T10:11:31;101051.69;;;4.73;99.84
17855;BME280;9053;53.358;6.382;2022-11-20T10:14:17;101063.28;;;4.78;99.77
17855;BME280;9053;53.358;6.382;2022-11-20T10:16:56;101057.28;;;4.80;99.76
17855;BME280;9053;53.358;6.382;2022-11-20T10:19:54;101056.63;;;4.84;99.84
17855;BME280;9053;53.358;6.382;2022-11-20T10:22:42;101065.44;;;4.86;99.81
17855;BME280;9053;53.358;6.382;2022-11-20T10:25:14;101063.84;;;4.88;99.82
17855;BME280;9053;53.358;6.382;2022-11-20T10:27:58;101044.78;;;4.89;99.70
17855;BME280;9053;53.358;6.382;2022-11-20T10:30:41;101046.72;;;4.91;99.88
17855;BME280;9053;53.358;6.382;2022-11-20T10:33:15;101049.31;;;4.91;99.68
17855;BME280;9053;53.358;6.382;2022-11-20T10:35:51;101043.38;;;4.94;99.84
17855;BME280;9053;53.358;6.382;2022-11-20T10:38:25;101024.50;;;4.98;99.87
17855;BME280;9053;53.358;6.382;2022-11-20T10:40:59;101021.88;;;4.98;99.75
17855;BME280;9053;53.358;6.382;2022-11-20T10:43:43;101024.66;;;5.01;99.75
17855;BME280;9053;53.358;6.382;2022-11-20T10:46:19;101028.25;;;5.03;99.70
17855;BME280;9053;53.358;6.382;2022-11-20T10:48:49;101023.06;;;5.03;99.63
17855;BME280;9053;53.358;6.382;2022-11-20T10:51:31;101019.66;;;5.04;99.64
17855;BME280;9053;53.358;6.382;2022-11-20T10:54:15;101013.72;;;5.07;99.54
17855;BME280;9053;53.358;6.382;2022-11-20T10:56:50;100999.97;;;5.09;99.67
17855;BME280;9053;53.358;6.382;2022-11-20T10:59:32;100999.31;;;5.13;99.58
17855;BME280;9053;53.358;6.382;2022-11-20T11:02:31;100998.59;;;5.16;99.61
17855;BME280;9053;53.358;6.382;2022-11-20T11:05:11;100996.88;;;5.16;99.51
17855;BME280;9053;53.358;6.382;2022-11-20T11:07:44;100983.94;;;5.18;99.52
17855;BME280;9053;53.358;6.382;2022-11-20T11:10:16;100977.91;;;5.19;99.40
17855;BME280;9053;53.358;6.382;2022-11-20T11:12:47;100982.31;;;5.20;99.41
17855;BME280;9053;53.358;6.382;2022-11-20T11:15:26;100979.72;;;5.20;99.30
17855;BME280;9053;53.358;6.382;2022-11-20T11:17:59;100981.44;;;5.19;99.26
17855;BME280;9053;53.358;6.382;2022-11-20T11:20:29;100980.50;;;5.19;99.18
17855;BME280;9053;53.358;6.382;2022-11-20T11:22:59;100990.16;;;5.20;99.21
17855;BME280;9053;53.358;6.382;2022-11-20T11:25:31;100974.41;;;5.18;99.15
17855;BME280;9053;53.358;6.382;2022-11-20T11:28:03;100983.94;;;5.18;99.07
17855;BME280;9053;53.358;6.382;2022-11-20T11:30:42;100976.22;;;5.19;98.96
17855;BME280;9053;53.358;6.382;2022-11-20T11:33:19;100973.50;;;5.18;98.77
17855;BME280;9053;53.358;6.382;2022-11-20T11:35:50;100972.63;;;5.17;98.81
17855;BME280;9053;53.358;6.382;2022-11-20T11:38:29;100967.31;;;5.16;98.64
17855;BME280;9053;53.358;6.382;2022-11-20T11:40:59;100966.25;;;5.12;98.56
17855;BME280;9053;53.358;6.382;2022-11-20T11:43:32;100959.88;;;5.07;98.39
17855;BME280;9053;53.358;6.382;2022-11-20T11:46:26;100966.81;;;5.07;98.35
17855;BME280;9053;53.358;6.382;2022-11-20T11:49:01;100962.31;;;5.04;98.22
17855;BME280;9053;53.358;6.382;2022-11-20T11:51:36;100962.31;;;5.04;98.13
17855;BME280;9053;53.358;6.382;2022-11-20T11:54:15;100965.81;;;5.05;98.00
17855;BME280;9053;53.358;6.382;2022-11-20T11:56:46;100968.41;;;5.05;97.95
17855;BME280;9053;53.358;6.382;2022-11-20T11:59:23;100960.50;;;5.03;97.85
17855;BME280;9053;53.358;6.382;2022-11-20T12:02:00;100964.00;;;5.04;97.63
17855;BME280;9053;53.358;6.382;2022-11-20T12:04:43;100960.50;;;5.03;97.48
17855;BME280;9053;53.358;6.382;2022-11-20T12:07:19;100954.38;;;5.03;97.43
17855;BME280;9053;53.358;6.382;2022-11-20T12:10:16;100947.28;;;5.00;97.23
17855;BME280;9053;53.358;6.382;2022-11-20T12:12:52;100942.06;;;5.00;97.03
17855;BME280;9053;53.358;6.382;2022-11-20T12:15:30;100941.34;;;5.03;96.84
17855;BME280;9053;53.358;6.382;2022-11-20T12:18:00;100937.13;;;5.05;96.72
17855;BME280;9053;53.358;6.382;2022-11-20T12:20:39;100938.19;;;5.08;96.65
17855;BME280;9053;53.358;6.382;2022-11-20T12:23:19;100936.59;;;5.10;96.51
17855;BME280;9053;53.358;6.382;2022-11-20T12:25:55;100934.97;;;5.12;96.36
17855;BME280;9053;53.358;6.382;2022-11-20T12:28:44;100926.47;;;5.16;96.15
17855;BME280;9053;53.358;6.382;2022-11-20T12:31:29;100921.47;;;5.19;95.98
17855;BME280;9053;53.358;6.382;2022-11-20T12:34:12;100922.69;;;5.26;95.99
17855;BME280;9053;53.358;6.382;2022-11-20T12:36:54;100926.38;;;5.30;95.88
17855;BME280;9053;53.358;6.382;2022-11-20T12:39:34;100935.38;;;5.35;95.74
17855;BME280;9053;53.358;6.382;2022-11-20T12:42:21;100926.09;;;5.40;95.64
17855;BME280;9053;53.358;6.382;2022-11-20T12:45:24;100933.25;;;5.44;95.57
17855;BME280;9053;53.358;6.382;2022-11-20T12:48:23;100922.03;;;5.45;95.34
17855;BME280;9053;53.358;6.382;2022-11-20T12:51:11;100916.88;;;5.47;95.23
17855;BME280;9053;53.358;6.382;2022-11-20T12:53:58;100910.94;;;5.49;95.23
17855;BME280;9053;53.358;6.382;2022-11-20T12:56:39;100902.22;;;5.49;95.02
17855;BME280;9053;53.358;6.382;2022-11-20T12:59:27;100904.91;;;5.50;94.96
17855;BME280;9053;53.358;6.382;2022-11-20T13:02:11;100903.28;;;5.52;94.80
17855;BME280;9053;53.358;6.382;2022-11-20T13:05:01;100902.31;;;5.50;94.67
17855;BME280;9053;53.358;6.382;2022-11-20T13:07:35;100897.16;;;5.52;94.42
17855;BME280;9053;53.358;6.382;2022-11-20T13:10:15;100889.44;;;5.53;94.26
17855;BME280;9053;53.358;6.382;2022-11-20T13:12:53;100885.03;;;5.52;94.13
17855;BME280;9053;53.358;6.382;2022-11-20T13:15:35;100882.44;;;5.52;93.84
17855;BME280;9053;53.358;6.382;2022-11-20T13:18:10;100865.78;;;5.50;93.71
17855;BME280;9053;53.358;6.382;2022-11-20T13:20:42;100858.03;;;5.52;93.54
17855;BME280;9053;53.358;6.382;2022-11-20T13:23:23;100852.91;;;5.53;93.18
17855;BME280;9053;53.358;6.382;2022-11-20T13:26:19;100854.63;;;5.53;92.99
17855;BME280;9053;53.358;6.382;2022-11-20T13:29:02;100855.50;;;5.53;92.93
17855;BME280;9053;53.358;6.382;2022-11-20T13:31:42;100850.31;;;5.53;92.72
17855;BME280;9053;53.358;6.382;2022-11-20T13:34:22;100842.47;;;5.53;92.41
17855;BME280;9053;53.358;6.382;2022-11-20T13:36:54;100842.47;;;5.53;92.30
17855;BME280;9053;53.358;6.382;2022-11-20T13:39:24;100833.75;;;5.53;92.27
17855;BME280;9053;53.358;6.382;2022-11-20T13:41:58;100832.13;;;5.55;92.02
17855;BME280;9053;53.358;6.382;2022-11-20T13:44:34;100834.75;;;5.55;91.89
17855;BME280;9053;53.358;6.382;2022-11-20T13:47:20;100839.03;;;5.54;91.56
17855;BME280;9053;53.358;6.382;2022-11-20T13:49:51;100831.94;;;5.52;91.45
17855;BME280;9053;53.358;6.382;2022-11-20T13:52:39;100827.47;;;5.49;91.22
17855;BME280;9053;53.358;6.382;2022-11-20T13:55:16;100826.41;;;5.46;90.86
17855;BME280;9053;53.358;6.382;2022-11-20T14:00:57;100814.41;;;5.49;90.50
17855;BME280;9053;53.358;6.382;2022-11-20T14:03:30;100816.22;;;5.50;90.25
17855;BME280;9053;53.358;6.382;2022-11-20T14:06:26;100807.66;;;5.53;90.05
17855;BME280;9053;53.358;6.382;2022-11-20T14:08:58;100801.56;;;5.52;89.91
17855;BME280;9053;53.358;6.382;2022-11-20T14:11:30;100802.50;;;5.54;89.67
17855;BME280;9053;53.358;6.382;2022-11-20T14:14:02;100800.84;;;5.55;89.52